sensor_id;sensor_type;location;lat;lon;timestamp;P1;P2;P0
49343;PMS5003;35210;41.606;-87.602;2024-01-06T00:01:51;22.40;16.40;9.40
49343;PMS5003;35210;41.606;-87.602;2024-01-06T00:04:19;21.40;20.20;12.80
49343;PMS5003;35210;41.606;-87.602;2024-01-06T00:06:52;21.20;21.00;13.60
49343;PMS5003;35210;41.606;-87.602;2024-01-06T00:09:20;23.40;20.20;13.20
49343;PMS5003;35210;41.606;-87.602;2024-01-06T00:11:48;26.00;21.60;15.80
49343;PMS5003;35210;41.606;-87.602;2024-01-06T00:14:16;17.00;15.20;11.00
49343;PMS5003;35210;41.606;-87.602;2024-01-06T00:16:44;21.60;19.20;12.20
49343;PMS5003;35210;41.606;-87.602;2024-01-06T00:19:14;19.00;17.40;10.80
49343;PMS5003;35210;41.606;-87.602;2024-01-06T00:21:43;30.00;23.20;13.00
49343;PMS5003;35210;41.606;-87.602;2024-01-06T00:24:12;21.60;17.80;13.60
49343;PMS5003;35210;41.606;-87.602;2024-01-06T00:26:41;18.20;18.20;13.80
49343;PMS5003;35210;41.606;-87.602;2024-01-06T00:29:09;32.00;24.20;17.00
49343;PMS5003;35210;41.606;-87.602;2024-01-06T00:31:36;27.60;24.40;16.60
49343;PMS5003;35210;41.606;-87.602;2024-01-06T00:34:06;34.80;26.20;17.00
49343;PMS5003;35210;41.606;-87.602;2024-01-06T00:36:34;25.40;23.60;16.00
49343;PMS5003;35210;41.606;-87.602;2024-01-06T00:39:02;22.40;20.20;13.00
49343;PMS5003;35210;41.606;-87.602;2024-01-06T00:41:34;28.40;26.80;15.60
49343;PMS5003;35210;41.606;-87.602;2024-01-06T00:44:02;22.20;21.40;13.20
49343;PMS5003;35210;41.606;-87.602;2024-01-06T00:46:31;23.20;22.40;15.60
49343;PMS5003;35210;41.606;-87.602;2024-01-06T00:48:59;28.80;21.20;13.60
49343;PMS5003;35210;41.606;-87.602;2024-01-06T00:51:28;13.20;9.80;2.40
49343;PMS5003;35210;41.606;-87.602;2024-01-06T00:53:56;23.00;22.20;14.00
49343;PMS5003;35210;41.606;-87.602;2024-01-06T00:56:24;20.60;20.00;13.40
49343;PMS5003;35210;41.606;-87.602;2024-01-06T00:58:54;24.20;24.00;16.00
49343;PMS5003;35210;41.606;-87.602;2024-01-06T01:01:22;28.00;27.60;16.00
49343;PMS5003;35210;41.606;-87.602;2024-01-06T01:03:50;32.80;25.80;14.00
49343;PMS5003;35210;41.606;-87.602;2024-01-06T01:06:18;22.60;20.60;11.00
49343;PMS5003;35210;41.606;-87.602;2024-01-06T01:08:47;23.80;20.00;12.80
49343;PMS5003;35210;41.606;-87.602;2024-01-06T01:11:15;29.00;21.80;12.60
49343;PMS5003;35210;41.606;-87.602;2024-01-06T01:13:43;25.60;21.40;12.20
49343;PMS5003;35210;41.606;-87.602;2024-01-06T01:16:13;19.60;19.00;10.80
49343;PMS5003;35210;41.606;-87.602;2024-01-06T01:18:41;16.60;16.60;10.00
49343;PMS5003;35210;41.606;-87.602;2024-01-06T01:21:10;25.40;20.40;13.00
49343;PMS5003;35210;41.606;-87.602;2024-01-06T01:23:38;28.00;24.80;13.60
49343;PMS5003;35210;41.606;-87.602;2024-01-06T01:26:06;19.80;16.60;10.00
49343;PMS5003;35210;41.606;-87.602;2024-01-06T01:28:34;26.80;23.00;14.20
49343;PMS5003;35210;41.606;-87.602;2024-01-06T01:31:02;24.40;21.40;14.80
49343;PMS5003;35210;41.606;-87.602;2024-01-06T01:33:33;37.80;24.80;15.20
49343;PMS5003;35210;41.606;-87.602;2024-01-06T01:36:01;24.60;22.00;13.80
49343;PMS5003;35210;41.606;-87.602;2024-01-06T01:38:29;22.40;19.80;12.20
49343;PMS5003;35210;41.606;-87.602;2024-01-06T01:40:58;23.80;20.20;14.20
49343;PMS5003;35210;41.606;-87.602;2024-01-06T01:43:26;31.40;21.20;12.20
49343;PMS5003;35210;41.606;-87.602;2024-01-06T01:45:55;21.20;19.60;11.60
49343;PMS5003;35210;41.606;-87.602;2024-01-06T01:48:24;24.80;24.80;13.00
49343;PMS5003;35210;41.606;-87.602;2024-01-06T01:50:54;21.60;16.20;11.60
49343;PMS5003;35210;41.606;-87.602;2024-01-06T01:53:26;24.00;22.20;13.40
49343;PMS5003;35210;41.606;-87.602;2024-01-06T01:55:58;21.80;21.80;12.00
49343;PMS5003;35210;41.606;-87.602;2024-01-06T01:58:26;13.60;9.00;7.20
49343;PMS5003;35210;41.606;-87.602;2024-01-06T02:00:55;29.80;22.60;12.80
49343;PMS5003;35210;41.606;-87.602;2024-01-06T02:03:24;29.20;24.80;13.80
49343;PMS5003;35210;41.606;-87.602;2024-01-06T02:05:56;21.00;18.80;12.00
49343;PMS5003;35210;41.606;-87.602;2024-01-06T02:08:25;32.60;25.60;16.60
49343;PMS5003;35210;41.606;-87.602;2024-01-06T02:10:54;19.80;19.60;11.40
49343;PMS5003;35210;41.606;-87.602;2024-01-06T02:13:23;25.80;20.20;12.40
49343;PMS5003;35210;41.606;-87.602;2024-01-06T02:15:54;21.80;17.40;9.80
49343;PMS5003;35210;41.606;-87.602;2024-01-06T02:18:23;19.20;16.00;8.60
49343;PMS5003;35210;41.606;-87.602;2024-01-06T02:20:51;20.60;20.60;12.20
49343;PMS5003;35210;41.606;-87.602;2024-01-06T02:23:26;23.80;19.60;11.00
49343;PMS5003;35210;41.606;-87.602;2024-01-06T02:25:55;27.80;23.80;15.40
49343;PMS5003;35210;41.606;-87.602;2024-01-06T02:28:23;21.80;21.20;12.80
49343;PMS5003;35210;41.606;-87.602;2024-01-06T02:30:51;17.00;16.00;9.80
49343;PMS5003;35210;41.606;-87.602;2024-01-06T02:33:19;28.60;23.40;14.40
49343;PMS5003;35210;41.606;-87.602;2024-01-06T02:35:49;24.60;23.00;13.20
49343;PMS5003;35210;41.606;-87.602;2024-01-06T02:38:18;23.60;21.60;14.80
49343;PMS5003;35210;41.606;-87.602;2024-01-06T02:40:47;28.00;24.40;13.80
49343;PMS5003;35210;41.606;-87.602;2024-01-06T02:43:15;22.40;18.40;10.00
49343;PMS5003;35210;41.606;-87.602;2024-01-06T02:45:43;28.20;22.80;13.20
49343;PMS5003;35210;41.606;-87.602;2024-01-06T02:48:12;25.80;21.60;14.60
49343;PMS5003;35210;41.606;-87.602;2024-01-06T02:50:40;26.00;20.20;11.80
49343;PMS5003;35210;41.606;-87.602;2024-01-06T02:53:09;20.20;17.60;9.80
49343;PMS5003;35210;41.606;-87.602;2024-01-06T02:55:38;23.80;20.40;13.60
49343;PMS5003;35210;41.606;-87.602;2024-01-06T02:58:09;21.00;19.40;10.00
49343;PMS5003;35210;41.606;-87.602;2024-01-06T03:00:38;22.40;21.80;14.00
49343;PMS5003;35210;41.606;-87.602;2024-01-06T03:03:06;24.80;20.60;11.80
49343;PMS5003;35210;41.606;-87.602;2024-01-06T03:05:34;28.20;21.60;14.00
49343;PMS5003;35210;41.606;-87.602;2024-01-06T03:08:03;24.40;22.60;13.20
49343;PMS5003;35210;41.606;-87.602;2024-01-06T03:10:33;18.40;17.20;12.40
49343;PMS5003;35210;41.606;-87.602;2024-01-06T03:13:01;23.40;22.00;10.00
49343;PMS5003;35210;41.606;-87.602;2024-01-06T03:15:31;20.80;17.80;12.00
49343;PMS5003;35210;41.606;-87.602;2024-01-06T03:18:00;22.20;22.00;12.00
49343;PMS5003;35210;41.606;-87.602;2024-01-06T03:20:28;22.20;22.20;14.60
49343;PMS5003;35210;41.606;-87.602;2024-01-06T03:22:56;23.00;21.00;12.60
49343;PMS5003;35210;41.606;-87.602;2024-01-06T03:25:25;25.40;24.00;12.80
49343;PMS5003;35210;41.606;-87.602;2024-01-06T03:27:53;24.20;23.80;11.40
49343;PMS5003;35210;41.606;-87.602;2024-01-06T03:30:21;20.20;18.60;14.00
49343;PMS5003;35210;41.606;-87.602;2024-01-06T03:32:52;23.80;22.40;14.20
49343;PMS5003;35210;41.606;-87.602;2024-01-06T03:35:22;26.00;24.20;16.00
49343;PMS5003;35210;41.606;-87.602;2024-01-06T03:37:50;27.80;23.00;11.00
49343;PMS5003;35210;41.606;-87.602;2024-01-06T03:40:18;22.00;19.20;10.60
49343;PMS5003;35210;41.606;-87.602;2024-01-06T03:42:48;24.40;22.00;14.40
49343;PMS5003;35210;41.606;-87.602;2024-01-06T03:45:16;31.00;26.00;13.80
49343;PMS5003;35210;41.606;-87.602;2024-01-06T03:47:45;22.20;17.80;10.20
49343;PMS5003;35210;41.606;-87.602;2024-01-06T03:50:15;23.80;21.00;11.40
49343;PMS5003;35210;41.606;-87.602;2024-01-06T03:52:43;26.00;24.80;13.60
49343;PMS5003;35210;41.606;-87.602;2024-01-06T03:55:12;33.80;27.20;15.60
49343;PMS5003;35210;41.606;-87.602;2024-01-06T03:57:39;24.40;23.00;14.20
49343;PMS5003;35210;41.606;-87.602;2024-01-06T04:00:07;24.60;22.40;15.20
49343;PMS5003;35210;41.606;-87.602;2024-01-06T04:02:37;25.20;21.20;13.20
49343;PMS5003;35210;41.606;-87.602;2024-01-06T04:05:05;27.40;24.60;15.00
49343;PMS5003;35210;41.606;-87.602;2024-01-06T04:07:42;27.60;26.20;15.60
49343;PMS5003;35210;41.606;-87.602;2024-01-06T04:10:11;31.00;26.40;16.00
49343;PMS5003;35210;41.606;-87.602;2024-01-06T04:12:39;25.20;21.20;11.00
49343;PMS5003;35210;41.606;-87.602;2024-01-06T04:15:08;27.40;24.00;17.00
49343;PMS5003;35210;41.606;-87.602;2024-01-06T04:17:36;25.20;23.60;15.00
49343;PMS5003;35210;41.606;-87.602;2024-01-06T04:20:04;27.20;25.20;14.00
49343;PMS5003;35210;41.606;-87.602;2024-01-06T04:22:39;28.00;25.40;15.00
49343;PMS5003;35210;41.606;-87.602;2024-01-06T04:25:07;32.60;26.00;17.00
49343;PMS5003;35210;41.606;-87.602;2024-01-06T04:27:35;25.80;24.40;14.00
49343;PMS5003;35210;41.606;-87.602;2024-01-06T04:30:03;29.40;26.00;17.00
49343;PMS5003;35210;41.606;-87.602;2024-01-06T04:32:32;34.60;28.60;15.80
49343;PMS5003;35210;41.606;-87.602;2024-01-06T04:35:00;30.60;25.60;14.00
49343;PMS5003;35210;41.606;-87.602;2024-01-06T04:37:32;30.20;24.20;14.00
49343;PMS5003;35210;41.606;-87.602;2024-01-06T04:40:02;36.40;31.80;20.00
49343;PMS5003;35210;41.606;-87.602;2024-01-06T04:42:32;28.00;25.40;16.60
49343;PMS5003;35210;41.606;-87.602;2024-01-06T04:45:00;29.40;27.40;17.00
49343;PMS5003;35210;41.606;-87.602;2024-01-06T04:47:29;30.20;24.20;16.00
49343;PMS5003;35210;41.606;-87.602;2024-01-06T04:49:59;28.80;26.20;18.80
49343;PMS5003;35210;41.606;-87.602;2024-01-06T04:52:27;33.40;32.80;17.20
49343;PMS5003;35210;41.606;-87.602;2024-01-06T04:54:55;33.80;27.80;16.20
49343;PMS5003;35210;41.606;-87.602;2024-01-06T04:57:25;27.40;24.80;17.60
49343;PMS5003;35210;41.606;-87.602;2024-01-06T04:59:53;25.60;25.60;13.80
49343;PMS5003;35210;41.606;-87.602;2024-01-06T05:02:21;36.60;27.60;17.80
49343;PMS5003;35210;41.606;-87.602;2024-01-06T05:04:50;33.40;29.00;18.80
49343;PMS5003;35210;41.606;-87.602;2024-01-06T05:07:20;30.80;25.80;17.80
49343;PMS5003;35210;41.606;-87.602;2024-01-06T05:09:48;30.80;28.60;20.60
49343;PMS5003;35210;41.606;-87.602;2024-01-06T05:12:16;37.00;32.60;21.00
49343;PMS5003;35210;41.606;-87.602;2024-01-06T05:14:48;30.00;25.40;13.20
49343;PMS5003;35210;41.606;-87.602;2024-01-06T05:17:17;31.60;27.00;16.20
49343;PMS5003;35210;41.606;-87.602;2024-01-06T05:19:45;31.60;29.20;20.00
49343;PMS5003;35210;41.606;-87.602;2024-01-06T05:22:13;31.40;28.20;17.00
49343;PMS5003;35210;41.606;-87.602;2024-01-06T05:24:42;31.40;26.00;14.20
49343;PMS5003;35210;41.606;-87.602;2024-01-06T05:27:11;29.00;26.20;19.60
49343;PMS5003;35210;41.606;-87.602;2024-01-06T05:29:39;38.60;34.40;21.20
49343;PMS5003;35210;41.606;-87.602;2024-01-06T05:32:11;34.20;26.40;15.00
49343;PMS5003;35210;41.606;-87.602;2024-01-06T05:34:40;40.00;31.00;20.80
49343;PMS5003;35210;41.606;-87.602;2024-01-06T05:37:08;34.80;29.40;16.00
49343;PMS5003;35210;41.606;-87.602;2024-01-06T05:39:37;33.60;30.40;18.20
49343;PMS5003;35210;41.606;-87.602;2024-01-06T05:42:07;41.40;35.80;20.60
49343;PMS5003;35210;41.606;-87.602;2024-01-06T05:44:37;39.40;33.20;20.80
49343;PMS5003;35210;41.606;-87.602;2024-01-06T05:47:06;46.00;40.00;22.40
49343;PMS5003;35210;41.606;-87.602;2024-01-06T05:49:38;37.80;30.60;18.80
49343;PMS5003;35210;41.606;-87.602;2024-01-06T05:52:12;40.60;33.00;19.60
49343;PMS5003;35210;41.606;-87.602;2024-01-06T05:54:42;37.00;32.20;21.40
49343;PMS5003;35210;41.606;-87.602;2024-01-06T05:57:10;47.00;40.20;21.20
49343;PMS5003;35210;41.606;-87.602;2024-01-06T05:59:39;36.20;36.00;19.60
49343;PMS5003;35210;41.606;-87.602;2024-01-06T06:02:07;49.40;38.20;21.00
49343;PMS5003;35210;41.606;-87.602;2024-01-06T06:04:36;39.60;34.40;20.80
49343;PMS5003;35210;41.606;-87.602;2024-01-06T06:07:04;32.80;31.80;22.60
49343;PMS5003;35210;41.606;-87.602;2024-01-06T06:09:32;37.20;34.80;20.20
49343;PMS5003;35210;41.606;-87.602;2024-01-06T06:12:03;45.00;38.40;26.60
49343;PMS5003;35210;41.606;-87.602;2024-01-06T06:14:32;41.80;35.00;19.60
49343;PMS5003;35210;41.606;-87.602;2024-01-06T06:17:00;48.60;38.60;21.80
49343;PMS5003;35210;41.606;-87.602;2024-01-06T06:19:29;45.40;38.40;20.40
49343;PMS5003;35210;41.606;-87.602;2024-01-06T06:21:58;49.40;38.20;22.20
49343;PMS5003;35210;41.606;-87.602;2024-01-06T06:24:26;34.40;28.80;14.60
49343;PMS5003;35210;41.606;-87.602;2024-01-06T06:26:54;39.40;31.40;20.60
49343;PMS5003;35210;41.606;-87.602;2024-01-06T06:29:22;50.80;42.60;24.00
49343;PMS5003;35210;41.606;-87.602;2024-01-06T06:31:50;44.00;37.60;20.00
49343;PMS5003;35210;41.606;-87.602;2024-01-06T06:34:18;44.00;37.00;22.40
49343;PMS5003;35210;41.606;-87.602;2024-01-06T06:36:46;43.40;36.60;21.80
49343;PMS5003;35210;41.606;-87.602;2024-01-06T06:39:16;48.00;42.00;24.60
49343;PMS5003;35210;41.606;-87.602;2024-01-06T06:41:45;42.80;36.80;19.20
49343;PMS5003;35210;41.606;-87.602;2024-01-06T06:44:13;44.20;38.60;21.40
49343;PMS5003;35210;41.606;-87.602;2024-01-06T06:46:41;52.60;40.40;19.40
49343;PMS5003;35210;41.606;-87.602;2024-01-06T06:49:09;38.60;34.80;19.40
49343;PMS5003;35210;41.606;-87.602;2024-01-06T06:51:37;39.60;38.20;23.20
49343;PMS5003;35210;41.606;-87.602;2024-01-06T06:54:11;40.80;39.40;23.20
49343;PMS5003;35210;41.606;-87.602;2024-01-06T06:56:41;41.40;35.20;20.60
49343;PMS5003;35210;41.606;-87.602;2024-01-06T06:59:10;38.60;34.20;20.00
49343;PMS5003;35210;41.606;-87.602;2024-01-06T07:01:38;40.60;38.20;19.80
49343;PMS5003;35210;41.606;-87.602;2024-01-06T07:04:07;45.40;39.00;22.80
49343;PMS5003;35210;41.606;-87.602;2024-01-06T07:06:35;32.00;32.00;20.00
49343;PMS5003;35210;41.606;-87.602;2024-01-06T07:09:04;34.80;29.80;20.20
49343;PMS5003;35210;41.606;-87.602;2024-01-06T07:11:32;45.40;39.00;24.00
49343;PMS5003;35210;41.606;-87.602;2024-01-06T07:14:03;40.00;37.80;20.40
49343;PMS5003;35210;41.606;-87.602;2024-01-06T07:16:31;46.00;38.80;23.80
49343;PMS5003;35210;41.606;-87.602;2024-01-06T07:18:59;40.80;38.40;21.80
49343;PMS5003;35210;41.606;-87.602;2024-01-06T07:21:27;44.80;39.80;23.20
49343;PMS5003;35210;41.606;-87.602;2024-01-06T07:23:55;43.40;35.20;23.80
49343;PMS5003;35210;41.606;-87.602;2024-01-06T07:26:23;44.40;40.40;25.20
49343;PMS5003;35210;41.606;-87.602;2024-01-06T07:28:51;46.00;41.40;26.40
49343;PMS5003;35210;41.606;-87.602;2024-01-06T07:31:21;45.20;38.00;25.00
49343;PMS5003;35210;41.606;-87.602;2024-01-06T07:33:49;46.00;40.40;23.80
49343;PMS5003;35210;41.606;-87.602;2024-01-06T07:36:17;41.80;38.00;23.60
49343;PMS5003;35210;41.606;-87.602;2024-01-06T07:38:45;35.60;34.20;19.60
49343;PMS5003;35210;41.606;-87.602;2024-01-06T07:41:13;42.20;38.40;23.80
49343;PMS5003;35210;41.606;-87.602;2024-01-06T07:43:41;38.20;37.20;23.40
49343;PMS5003;35210;41.606;-87.602;2024-01-06T07:46:09;42.40;39.80;26.40
49343;PMS5003;35210;41.606;-87.602;2024-01-06T07:48:39;41.00;36.60;23.60
49343;PMS5003;35210;41.606;-87.602;2024-01-06T07:51:06;40.00;38.20;25.00
49343;PMS5003;35210;41.606;-87.602;2024-01-06T07:53:34;50.80;40.60;23.60
49343;PMS5003;35210;41.606;-87.602;2024-01-06T07:56:03;33.80;31.80;19.40
49343;PMS5003;35210;41.606;-87.602;2024-01-06T07:58:31;39.80;35.60;22.80
49343;PMS5003;35210;41.606;-87.602;2024-01-06T08:00:59;38.60;33.20;20.40
49343;PMS5003;35210;41.606;-87.602;2024-01-06T08:03:27;22.20;22.20;17.80
49343;PMS5003;35210;41.606;-87.602;2024-01-06T08:05:57;39.20;35.40;21.00
49343;PMS5003;35210;41.606;-87.602;2024-01-06T08:08:26;36.00;33.80;19.20
49343;PMS5003;35210;41.606;-87.602;2024-01-06T08:10:54;41.00;35.80;21.60
49343;PMS5003;35210;41.606;-87.602;2024-01-06T08:13:22;44.80;35.20;24.00
49343;PMS5003;35210;41.606;-87.602;2024-01-06T08:15:50;42.40;38.60;22.00
49343;PMS5003;35210;41.606;-87.602;2024-01-06T08:18:17;45.80;37.00;22.60
49343;PMS5003;35210;41.606;-87.602;2024-01-06T08:20:46;46.80;40.00;20.00
49343;PMS5003;35210;41.606;-87.602;2024-01-06T08:23:16;39.40;33.00;22.20
49343;PMS5003;35210;41.606;-87.602;2024-01-06T08:25:45;28.20;24.80;18.20
49343;PMS5003;35210;41.606;-87.602;2024-01-06T08:28:13;38.60;35.00;21.00
49343;PMS5003;35210;41.606;-87.602;2024-01-06T08:30:41;41.60;36.00;21.20
49343;PMS5003;35210;41.606;-87.602;2024-01-06T08:33:09;38.80;37.60;21.00
49343;PMS5003;35210;41.606;-87.602;2024-01-06T08:35:38;37.00;28.40;16.00
49343;PMS5003;35210;41.606;-87.602;2024-01-06T08:38:06;39.20;34.40;21.20
49343;PMS5003;35210;41.606;-87.602;2024-01-06T08:40:35;40.00;33.60;22.80
49343;PMS5003;35210;41.606;-87.602;2024-01-06T08:43:04;34.20;33.00;19.80
49343;PMS5003;35210;41.606;-87.602;2024-01-06T08:45:32;43.20;37.60;21.80
49343;PMS5003;35210;41.606;-87.602;2024-01-06T08:48:00;42.20;37.20;23.00
49343;PMS5003;35210;41.606;-87.602;2024-01-06T08:50:28;46.00;39.80;23.00
49343;PMS5003;35210;41.606;-87.602;2024-01-06T08:52:55;34.40;31.40;16.20
49343;PMS5003;35210;41.606;-87.602;2024-01-06T08:55:22;31.60;28.20;16.60
49343;PMS5003;35210;41.606;-87.602;2024-01-06T08:57:52;45.00;35.60;18.40
49343;PMS5003;35210;41.606;-87.602;2024-01-06T09:00:20;45.20;40.20;24.00
49343;PMS5003;35210;41.606;-87.602;2024-01-06T09:02:48;45.40;37.80;19.40
49343;PMS5003;35210;41.606;-87.602;2024-01-06T09:05:16;43.20;40.00;21.00
49343;PMS5003;35210;41.606;-87.602;2024-01-06T09:07:44;40.00;36.80;22.00
49343;PMS5003;35210;41.606;-87.602;2024-01-06T09:10:15;50.60;41.00;21.60
49343;PMS5003;35210;41.606;-87.602;2024-01-06T09:12:43;33.60;31.20;17.60
49343;PMS5003;35210;41.606;-87.602;2024-01-06T09:15:13;45.60;38.80;22.20
49343;PMS5003;35210;41.606;-87.602;2024-01-06T09:17:41;37.00;34.80;20.40
49343;PMS5003;35210;41.606;-87.602;2024-01-06T09:20:09;42.00;33.40;20.20
49343;PMS5003;35210;41.606;-87.602;2024-01-06T09:22:38;44.60;36.60;20.40
49343;PMS5003;35210;41.606;-87.602;2024-01-06T09:25:06;38.40;33.80;23.40
49343;PMS5003;35210;41.606;-87.602;2024-01-06T09:27:34;45.20;40.00;22.60
49343;PMS5003;35210;41.606;-87.602;2024-01-06T09:30:03;43.00;37.80;23.20
49343;PMS5003;35210;41.606;-87.602;2024-01-06T09:32:33;47.20;40.80;24.60
49343;PMS5003;35210;41.606;-87.602;2024-01-06T09:35:01;42.80;35.00;22.80
49343;PMS5003;35210;41.606;-87.602;2024-01-06T09:37:29;43.80;39.80;24.60
49343;PMS5003;35210;41.606;-87.602;2024-01-06T09:39:57;48.80;40.20;25.80
49343;PMS5003;35210;41.606;-87.602;2024-01-06T09:42:26;33.20;31.00;23.60
49343;PMS5003;35210;41.606;-87.602;2024-01-06T09:44:54;53.20;40.20;25.80
49343;PMS5003;35210;41.606;-87.602;2024-01-06T09:47:22;46.00;41.00;26.20
49343;PMS5003;35210;41.606;-87.602;2024-01-06T09:49:55;45.60;33.60;23.00
49343;PMS5003;35210;41.606;-87.602;2024-01-06T09:52:28;48.20;44.20;27.00
49343;PMS5003;35210;41.606;-87.602;2024-01-06T09:55:00;47.60;40.80;25.60
49343;PMS5003;35210;41.606;-87.602;2024-01-06T09:57:34;46.80;38.40;24.20
49343;PMS5003;35210;41.606;-87.602;2024-01-06T10:00:03;53.80;42.80;27.00
49343;PMS5003;35210;41.606;-87.602;2024-01-06T10:02:33;42.80;38.40;21.20
49343;PMS5003;35210;41.606;-87.602;2024-01-06T10:05:03;52.25;43.75;29.25
49343;PMS5003;35210;41.606;-87.602;2024-01-06T10:07:32;46.20;39.80;24.40
49343;PMS5003;35210;41.606;-87.602;2024-01-06T10:10:00;56.20;43.00;27.00
49343;PMS5003;35210;41.606;-87.602;2024-01-06T10:12:28;41.20;35.00;26.20
49343;PMS5003;35210;41.606;-87.602;2024-01-06T10:14:57;52.60;43.00;25.60
49343;PMS5003;35210;41.606;-87.602;2024-01-06T10:17:25;24.40;21.20;7.60
49343;PMS5003;35210;41.606;-87.602;2024-01-06T10:19:53;46.00;42.80;27.00
49343;PMS5003;35210;41.606;-87.602;2024-01-06T10:22:23;53.80;42.20;23.80
49343;PMS5003;35210;41.606;-87.602;2024-01-06T10:24:52;44.80;42.60;25.40
49343;PMS5003;35210;41.606;-87.602;2024-01-06T10:27:21;44.40;38.40;26.60
49343;PMS5003;35210;41.606;-87.602;2024-01-06T10:29:49;45.00;33.40;19.40
49343;PMS5003;35210;41.606;-87.602;2024-01-06T10:32:17;48.60;39.40;25.00
49343;PMS5003;35210;41.606;-87.602;2024-01-06T10:34:45;47.40;40.60;22.80
49343;PMS5003;35210;41.606;-87.602;2024-01-06T10:37:14;44.40;41.00;23.00
49343;PMS5003;35210;41.606;-87.602;2024-01-06T10:39:46;54.25;45.00;25.25
49343;PMS5003;35210;41.606;-87.602;2024-01-06T10:42:14;55.75;43.25;25.75
49343;PMS5003;35210;41.606;-87.602;2024-01-06T10:44:43;47.20;42.40;26.40
49343;PMS5003;35210;41.606;-87.602;2024-01-06T10:47:14;42.80;40.00;23.20
49343;PMS5003;35210;41.606;-87.602;2024-01-06T10:49:44;50.20;42.40;24.00
49343;PMS5003;35210;41.606;-87.602;2024-01-06T10:52:14;37.20;33.00;20.00
49343;PMS5003;35210;41.606;-87.602;2024-01-06T10:54:42;55.00;43.20;25.20
49343;PMS5003;35210;41.606;-87.602;2024-01-06T10:57:17;45.60;38.40;20.60
49343;PMS5003;35210;41.606;-87.602;2024-01-06T10:59:48;41.00;38.40;23.60
49343;PMS5003;35210;41.606;-87.602;2024-01-06T11:02:18;48.40;40.20;23.60
49343;PMS5003;35210;41.606;-87.602;2024-01-06T11:04:47;52.40;41.40;22.40
49343;PMS5003;35210;41.606;-87.602;2024-01-06T11:07:16;48.80;40.00;26.60
49343;PMS5003;35210;41.606;-87.602;2024-01-06T11:09:46;47.00;42.60;26.60
49343;PMS5003;35210;41.606;-87.602;2024-01-06T11:12:20;43.00;39.20;20.80
49343;PMS5003;35210;41.606;-87.602;2024-01-06T11:14:49;44.20;36.20;23.80
49343;PMS5003;35210;41.606;-87.602;2024-01-06T11:20:14;50.00;39.80;24.60
49343;PMS5003;35210;41.606;-87.602;2024-01-06T11:22:42;45.20;39.00;23.40
49343;PMS5003;35210;41.606;-87.602;2024-01-06T11:25:13;46.40;36.80;21.00
49343;PMS5003;35210;41.606;-87.602;2024-01-06T11:27:44;44.60;38.80;22.40
49343;PMS5003;35210;41.606;-87.602;2024-01-06T11:30:20;45.00;36.20;21.20
49343;PMS5003;35210;41.606;-87.602;2024-01-06T11:32:50;36.00;31.40;20.00
49343;PMS5003;35210;41.606;-87.602;2024-01-06T11:35:20;48.80;38.60;24.20
49343;PMS5003;35210;41.606;-87.602;2024-01-06T11:37:53;41.20;36.80;22.00
49343;PMS5003;35210;41.606;-87.602;2024-01-06T11:40:23;37.40;32.40;21.60
49343;PMS5003;35210;41.606;-87.602;2024-01-06T11:42:58;46.60;35.20;20.80
49343;PMS5003;35210;41.606;-87.602;2024-01-06T11:45:28;36.20;31.40;19.40
49343;PMS5003;35210;41.606;-87.602;2024-01-06T11:47:58;43.40;39.60;24.00
49343;PMS5003;35210;41.606;-87.602;2024-01-06T11:50:28;47.00;41.20;24.80
49343;PMS5003;35210;41.606;-87.602;2024-01-06T11:52:57;44.20;37.40;22.20
49343;PMS5003;35210;41.606;-87.602;2024-01-06T11:55:27;42.80;38.00;24.00
49343;PMS5003;35210;41.606;-87.602;2024-01-06T11:57:58;36.80;33.80;19.00
49343;PMS5003;35210;41.606;-87.602;2024-01-06T12:00:28;45.40;38.20;22.00
49343;PMS5003;35210;41.606;-87.602;2024-01-06T12:02:56;50.80;41.20;22.40
49343;PMS5003;35210;41.606;-87.602;2024-01-06T12:05:26;46.20;40.00;22.60
49343;PMS5003;35210;41.606;-87.602;2024-01-06T12:07:55;52.80;42.80;21.40
49343;PMS5003;35210;41.606;-87.602;2024-01-06T12:10:24;38.20;36.80;24.00
49343;PMS5003;35210;41.606;-87.602;2024-01-06T12:12:59;42.40;35.00;21.00
49343;PMS5003;35210;41.606;-87.602;2024-01-06T12:15:28;43.80;32.80;20.00
49343;PMS5003;35210;41.606;-87.602;2024-01-06T12:17:57;41.00;33.00;18.40
49343;PMS5003;35210;41.606;-87.602;2024-01-06T12:20:26;41.60;32.00;19.20
49343;PMS5003;35210;41.606;-87.602;2024-01-06T12:22:55;39.60;38.00;24.00
49343;PMS5003;35210;41.606;-87.602;2024-01-06T12:25:23;44.00;35.40;21.60
49343;PMS5003;35210;41.606;-87.602;2024-01-06T12:27:54;48.60;41.00;21.20
49343;PMS5003;35210;41.606;-87.602;2024-01-06T12:30:23;40.40;37.20;20.00
49343;PMS5003;35210;41.606;-87.602;2024-01-06T12:32:52;46.60;38.60;20.80
49343;PMS5003;35210;41.606;-87.602;2024-01-06T12:35:20;45.00;35.60;21.40
49343;PMS5003;35210;41.606;-87.602;2024-01-06T12:37:48;33.20;26.00;17.60
49343;PMS5003;35210;41.606;-87.602;2024-01-06T12:40:16;38.00;30.80;17.00
49343;PMS5003;35210;41.606;-87.602;2024-01-06T12:42:45;58.20;42.20;23.60
49343;PMS5003;35210;41.606;-87.602;2024-01-06T12:45:13;38.20;34.20;23.40
49343;PMS5003;35210;41.606;-87.602;2024-01-06T12:47:44;47.80;33.80;20.60
49343;PMS5003;35210;41.606;-87.602;2024-01-06T12:50:12;37.80;31.00;18.80
49343;PMS5003;35210;41.606;-87.602;2024-01-06T12:52:40;42.20;38.20;23.20
49343;PMS5003;35210;41.606;-87.602;2024-01-06T12:55:08;41.40;36.00;20.20
49343;PMS5003;35210;41.606;-87.602;2024-01-06T12:57:36;37.40;33.20;19.20
49343;PMS5003;35210;41.606;-87.602;2024-01-06T13:00:04;40.20;38.80;24.00
49343;PMS5003;35210;41.606;-87.602;2024-01-06T13:02:34;47.60;43.00;26.00
49343;PMS5003;35210;41.606;-87.602;2024-01-06T13:05:04;40.00;36.60;22.00
49343;PMS5003;35210;41.606;-87.602;2024-01-06T13:07:34;48.20;37.60;20.20
49343;PMS5003;35210;41.606;-87.602;2024-01-06T13:10:03;44.60;38.80;24.20
49343;PMS5003;35210;41.606;-87.602;2024-01-06T13:12:31;49.40;38.60;21.20
49343;PMS5003;35210;41.606;-87.602;2024-01-06T13:14:59;47.20;36.40;20.80
49343;PMS5003;35210;41.606;-87.602;2024-01-06T13:17:27;43.00;40.40;22.00
49343;PMS5003;35210;41.606;-87.602;2024-01-06T13:19:55;42.60;36.00;21.60
49343;PMS5003;35210;41.606;-87.602;2024-01-06T13:22:25;37.60;32.80;19.80
49343;PMS5003;35210;41.606;-87.602;2024-01-06T13:24:53;32.80;29.40;20.00
49343;PMS5003;35210;41.606;-87.602;2024-01-06T13:27:22;44.80;39.40;19.60
49343;PMS5003;35210;41.606;-87.602;2024-01-06T13:29:50;50.80;42.60;24.80
49343;PMS5003;35210;41.606;-87.602;2024-01-06T13:32:18;43.00;38.40;23.20
49343;PMS5003;35210;41.606;-87.602;2024-01-06T13:34:47;40.60;38.60;23.60
49343;PMS5003;35210;41.606;-87.602;2024-01-06T13:37:19;45.20;38.60;26.60